sensor_id;sensor_type;location;lat;lon;timestamp;pressure;altitude;pressure_sealevel;temperature;humidity
69402;BME280;56589;51.992;5.924;2022-09-13T00:00:36;100472.28;;;19.27;60.24
69402;BME280;56589;51.992;5.924;2022-09-13T00:03:03;100468.91;;;19.25;59.89
69402;BME280;56589;51.992;5.924;2022-09-13T00:05:32;100466.44;;;19.23;59.72
69402;BME280;56589;51.992;5.924;2022-09-13T00:07:57;100474.59;;;19.22;59.99
69402;BME280;56589;51.992;5.924;2022-09-13T00:10:24;100468.59;;;19.20;59.90
69402;BME280;56589;51.992;5.924;2022-09-13T00:12:51;100466.91;;;19.19;60.35
69402;BME280;56589;51.992;5.924;2022-09-13T00:15:18;100465.06;;;19.19;59.99
69402;BME280;56589;51.992;5.924;2022-09-13T00:17:44;100469.56;;;19.19;60.12
69402;BME280;56589;51.992;5.924;2022-09-13T00:20:10;100458.09;;;19.18;60.38
69402;BME280;56589;51.992;5.924;2022-09-13T00:22:39;100461.75;;;19.17;60.47
69402;BME280;56589;51.992;5.924;2022-09-13T00:25:06;100449.44;;;19.16;60.18
69402;BME280;56589;51.992;5.924;2022-09-13T00:27:33;100451.28;;;19.16;60.56
69402;BME280;56589;51.992;5.924;2022-09-13T00:29:59;100446.25;;;19.12;60.58
69402;BME280;56589;51.992;5.924;2022-09-13T00:32:25;100447.25;;;19.11;60.17
69402;BME280;56589;51.992;5.924;2022-09-13T00:34:51;100439.44;;;19.10;60.21
69402;BME280;56589;51.992;5.924;2022-09-13T00:37:17;100441.44;;;19.08;60.75
69402;BME280;56589;51.992;5.924;2022-09-13T00:39:45;100438.09;;;19.06;60.89
69402;BME280;56589;51.992;5.924;2022-09-13T00:42:12;100438.09;;;19.06;61.01
69402;BME280;56589;51.992;5.924;2022-09-13T00:44:56;100431.13;;;19.05;60.97
69402;BME280;56589;51.992;5.924;2022-09-13T00:47:29;100436.78;;;19.02;60.60
69402;BME280;56589;51.992;5.924;2022-09-13T00:50:07;100431.75;;;18.99;60.86
69402;BME280;56589;51.992;5.924;2022-09-13T00:52:37;100441.56;;;18.98;60.80
69402;BME280;56589;51.992;5.924;2022-09-13T00:55:12;100436.25;;;18.98;61.06
69402;BME280;56589;51.992;5.924;2022-09-13T00:57:45;100435.41;;;18.98;61.46
69402;BME280;56589;51.992;5.924;2022-09-13T01:00:14;100430.25;;;18.96;61.66
69402;BME280;56589;51.992;5.924;2022-09-13T01:02:45;100430.41;;;18.95;61.79
69402;BME280;56589;51.992;5.924;2022-09-13T01:05:19;100433.41;;;18.92;61.61
69402;BME280;56589;51.992;5.924;2022-09-13T01:07:49;100429.38;;;18.88;62.20
69402;BME280;56589;51.992;5.924;2022-09-13T01:10:18;100434.03;;;18.85;62.76
69402;BME280;56589;51.992;5.924;2022-09-13T01:12:47;100438.00;;;18.81;62.92
69402;BME280;56589;51.992;5.924;2022-09-13T01:15:19;100422.56;;;18.77;63.05
69402;BME280;56589;51.992;5.924;2022-09-13T01:17:45;100421.03;;;18.74;63.11
69402;BME280;56589;51.992;5.924;2022-09-13T01:20:13;100425.69;;;18.72;63.57
69402;BME280;56589;51.992;5.924;2022-09-13T01:23:22;100426.81;;;18.70;63.52
69402;BME280;56589;51.992;5.924;2022-09-13T01:26:32;100419.97;;;18.59;64.04
69402;BME280;56589;51.992;5.924;2022-09-13T01:29:40;100423.91;;;18.55;63.85
69402;BME280;56589;51.992;5.924;2022-09-13T01:32:34;100407.41;;;18.51;64.28
69402;BME280;56589;51.992;5.924;2022-09-13T01:35:22;100409.41;;;18.49;64.49
69402;BME280;56589;51.992;5.924;2022-09-13T01:38:04;100419.88;;;18.51;64.82
69402;BME280;56589;51.992;5.924;2022-09-13T01:40:50;100412.59;;;18.53;64.78
69402;BME280;56589;51.992;5.924;2022-09-13T01:43:38;100412.44;;;18.54;64.39
69402;BME280;56589;51.992;5.924;2022-09-13T01:46:17;100410.44;;;18.56;64.40
69402;BME280;56589;51.992;5.924;2022-09-13T01:48:55;100422.63;;;18.59;64.01
69402;BME280;56589;51.992;5.924;2022-09-13T01:51:30;100403.03;;;18.60;63.87
69402;BME280;56589;51.992;5.924;2022-09-13T01:54:16;100417.66;;;18.64;64.03
69402;BME280;56589;51.992;5.924;2022-09-13T01:56:53;100415.84;;;18.65;63.77
69402;BME280;56589;51.992;5.924;2022-09-13T01:59:34;100415.69;;;18.66;63.92
69402;BME280;56589;51.992;5.924;2022-09-13T02:02:13;100418.34;;;18.66;63.57
69402;BME280;56589;51.992;5.924;2022-09-13T02:04:49;100414.53;;;18.69;63.28
69402;BME280;56589;51.992;5.924;2022-09-13T02:07:21;100408.38;;;18.68;63.72
69402;BME280;56589;51.992;5.924;2022-09-13T02:10:07;100406.53;;;18.69;63.67
69402;BME280;56589;51.992;5.924;2022-09-13T02:12:39;100411.19;;;18.67;63.30
69402;BME280;56589;51.992;5.924;2022-09-13T02:15:13;100414.69;;;18.67;63.38
69402;BME280;56589;51.992;5.924;2022-09-13T02:17:44;100415.53;;;18.68;63.83
69402;BME280;56589;51.992;5.924;2022-09-13T02:20:20;100410.19;;;18.68;63.67
69402;BME280;56589;51.992;5.924;2022-09-13T02:22:53;100420.19;;;18.66;63.52
69402;BME280;56589;51.992;5.924;2022-09-13T02:25:26;100420.31;;;18.64;63.54
69402;BME280;56589;51.992;5.924;2022-09-13T02:28:00;100411.50;;;18.64;63.54
69402;BME280;56589;51.992;5.924;2022-09-13T02:30:30;100415.84;;;18.65;63.66
69402;BME280;56589;51.992;5.924;2022-09-13T02:33:05;100410.38;;;18.66;63.38
69402;BME280;56589;51.992;5.924;2022-09-13T02:35:45;100412.84;;;18.68;63.38
69402;BME280;56589;51.992;5.924;2022-09-13T02:38:21;100409.66;;;18.64;63.71
69402;BME280;56589;51.992;5.924;2022-09-13T02:40:55;100402.69;;;18.63;63.81
69402;BME280;56589;51.992;5.924;2022-09-13T02:43:27;100411.84;;;18.61;63.85
69402;BME280;56589;51.992;5.924;2022-09-13T02:46:19;100416.31;;;18.60;63.13
69402;BME280;56589;51.992;5.924;2022-09-13T02:48:58;100405.97;;;18.57;63.13
69402;BME280;56589;51.992;5.924;2022-09-13T02:51:37;100409.63;;;18.56;62.93
69402;BME280;56589;51.992;5.924;2022-09-13T02:54:23;100414.09;;;18.55;62.81
69402;BME280;56589;51.992;5.924;2022-09-13T02:56:58;100414.09;;;18.55;63.03
69402;BME280;56589;51.992;5.924;2022-09-13T02:59:30;100404.63;;;18.53;62.52
69402;BME280;56589;51.992;5.924;2022-09-13T03:02:00;100420.59;;;18.53;62.54
69402;BME280;56589;51.992;5.924;2022-09-13T03:04:32;100414.75;;;18.49;62.50
69402;BME280;56589;51.992;5.924;2022-09-13T03:07:02;100414.38;;;18.44;62.54
69402;BME280;56589;51.992;5.924;2022-09-13T03:09:30;100408.56;;;18.41;62.81
69402;BME280;56589;51.992;5.924;2022-09-13T03:12:14;100407.72;;;18.40;63.02
69402;BME280;56589;51.992;5.924;2022-09-13T03:15:02;100408.19;;;18.36;62.74
69402;BME280;56589;51.992;5.924;2022-09-13T03:17:45;100403.34;;;18.31;62.77
69402;BME280;56589;51.992;5.924;2022-09-13T03:20:25;100405.50;;;18.27;63.12
69402;BME280;56589;51.992;5.924;2022-09-13T03:23:16;100410.66;;;18.29;63.26
69402;BME280;56589;51.992;5.924;2022-09-13T03:26:34;100414.13;;;18.29;63.25
69402;BME280;56589;51.992;5.924;2022-09-13T03:29:17;100409.81;;;18.28;63.48
69402;BME280;56589;51.992;5.924;2022-09-13T03:32:00;100419.44;;;18.29;63.19
69402;BME280;56589;51.992;5.924;2022-09-13T03:34:41;100414.13;;;18.29;63.36
69402;BME280;56589;51.992;5.924;2022-09-13T03:37:22;100418.47;;;18.30;63.18
69402;BME280;56589;51.992;5.924;2022-09-13T03:39:57;100420.13;;;18.31;63.21
69402;BME280;56589;51.992;5.924;2022-09-13T03:42:31;100416.47;;;18.32;62.87
69402;BME280;56589;51.992;5.924;2022-09-13T03:45:06;100416.47;;;18.32;63.21
69402;BME280;56589;51.992;5.924;2022-09-13T03:47:35;100414.63;;;18.33;63.22
69402;BME280;56589;51.992;5.924;2022-09-13T03:50:07;100418.16;;;18.33;63.30
69402;BME280;56589;51.992;5.924;2022-09-13T03:52:35;100422.47;;;18.35;62.88
69402;BME280;56589;51.992;5.924;2022-09-13T03:55:04;100417.81;;;18.37;62.93
69402;BME280;56589;51.992;5.924;2022-09-13T03:57:30;100417.66;;;18.38;62.70
69402;BME280;56589;51.992;5.924;2022-09-13T03:59:57;100418.34;;;18.40;62.99
69402;BME280;56589;51.992;5.924;2022-09-13T04:02:24;100421.69;;;18.42;62.94
69402;BME280;56589;51.992;5.924;2022-09-13T04:04:51;100425.00;;;18.44;62.83
69402;BME280;56589;51.992;5.924;2022-09-13T04:07:18;100422.34;;;18.44;63.11
69402;BME280;56589;51.992;5.924;2022-09-13T04:09:46;100415.38;;;18.43;62.63
69402;BME280;56589;51.992;5.924;2022-09-13T04:12:15;100411.22;;;18.41;62.95
69402;BME280;56589;51.992;5.924;2022-09-13T04:14:42;100413.88;;;18.41;62.95
69402;BME280;56589;51.992;5.924;2022-09-13T04:17:09;100410.88;;;18.44;63.07
69402;BME280;56589;51.992;5.924;2022-09-13T04:19:36;100411.72;;;18.44;62.96
69402;BME280;56589;51.992;5.924;2022-09-13T04:22:02;100411.56;;;18.46;62.75
69402;BME280;56589;51.992;5.924;2022-09-13T04:24:29;100413.25;;;18.47;62.87
69402;BME280;56589;51.992;5.924;2022-09-13T04:26:55;100413.25;;;18.47;62.99
69402;BME280;56589;51.992;5.924;2022-09-13T04:29:25;100409.75;;;18.46;62.94
69402;BME280;56589;51.992;5.924;2022-09-13T04:31:52;100406.56;;;18.43;62.91
69402;BME280;56589;51.992;5.924;2022-09-13T04:34:19;100412.88;;;18.42;62.99
69402;BME280;56589;51.992;5.924;2022-09-13T04:36:46;100414.88;;;18.40;63.38
69402;BME280;56589;51.992;5.924;2022-09-13T04:39:11;100421.31;;;18.37;62.98
69402;BME280;56589;51.992;5.924;2022-09-13T04:41:40;100417.81;;;18.37;63.31
69402;BME280;56589;51.992;5.924;2022-09-13T04:44:07;100417.81;;;18.37;63.35
69402;BME280;56589;51.992;5.924;2022-09-13T04:46:35;100427.63;;;18.36;63.54
69402;BME280;56589;51.992;5.924;2022-09-13T04:49:01;100430.28;;;18.36;63.34
69402;BME280;56589;51.992;5.924;2022-09-13T04:51:27;100432.28;;;18.34;63.49
69402;BME280;56589;51.992;5.924;2022-09-13T04:53:54;100427.94;;;18.33;63.81
69402;BME280;56589;51.992;5.924;2022-09-13T04:56:21;100434.72;;;18.27;63.45
69402;BME280;56589;51.992;5.924;2022-09-13T04:58:48;100441.84;;;18.27;63.50
69402;BME280;56589;51.992;5.924;2022-09-13T05:01:14;100444.66;;;18.25;63.84
69402;BME280;56589;51.992;5.924;2022-09-13T05:03:43;100440.34;;;18.24;63.79
69402;BME280;56589;51.992;5.924;2022-09-13T05:06:11;100438.53;;;18.25;63.90
69402;BME280;56589;51.992;5.924;2022-09-13T05:08:38;100446.31;;;18.26;64.06
69402;BME280;56589;51.992;5.924;2022-09-13T05:11:05;100449.81;;;18.27;64.47
69402;BME280;56589;51.992;5.924;2022-09-13T05:13:32;100445.38;;;18.27;64.27
69402;BME280;56589;51.992;5.924;2022-09-13T05:15:59;100449.69;;;18.28;64.32
69402;BME280;56589;51.992;5.924;2022-09-13T05:18:27;100441.19;;;18.25;64.74
69402;BME280;56589;51.992;5.924;2022-09-13T05:20:57;100437.53;;;18.26;64.92
69402;BME280;56589;51.992;5.924;2022-09-13T05:23:26;100439.19;;;18.27;65.08
69402;BME280;56589;51.992;5.924;2022-09-13T05:25:53;100444.50;;;18.27;65.17
69402;BME280;56589;51.992;5.924;2022-09-13T05:28:20;100441.84;;;18.27;65.25
69402;BME280;56589;51.992;5.924;2022-09-13T05:30:53;100447.31;;;18.25;65.43
69402;BME280;56589;51.992;5.924;2022-09-13T05:33:20;100446.50;;;18.25;65.81
69402;BME280;56589;51.992;5.924;2022-09-13T05:35:45;100447.31;;;18.25;65.63
69402;BME280;56589;51.992;5.924;2022-09-13T05:38:14;100448.97;;;18.26;65.71
69402;BME280;56589;51.992;5.924;2022-09-13T05:40:39;100457.66;;;18.28;65.95
69402;BME280;56589;51.992;5.924;2022-09-13T05:43:05;100452.84;;;18.32;65.80
69402;BME280;56589;51.992;5.924;2022-09-13T05:45:31;100462.34;;;18.35;65.87
69402;BME280;56589;51.992;5.924;2022-09-13T05:47:57;100456.34;;;18.32;65.90
69402;BME280;56589;51.992;5.924;2022-09-13T05:50:22;100461.34;;;18.36;65.84
69402;BME280;56589;51.992;5.924;2022-09-13T05:52:51;100464.00;;;18.36;65.97
69402;BME280;56589;51.992;5.924;2022-09-13T05:55:19;100459.53;;;18.36;66.19
69402;BME280;56589;51.992;5.924;2022-09-13T05:57:46;100454.88;;;18.38;66.26
69402;BME280;56589;51.992;5.924;2022-09-13T06:00:13;100464.38;;;18.41;66.25
69402;BME280;56589;51.992;5.924;2022-09-13T06:02:41;100476.22;;;18.46;65.73
69402;BME280;56589;51.992;5.924;2022-09-13T06:05:07;100470.41;;;18.51;65.59
69402;BME280;56589;51.992;5.924;2022-09-13T06:07:33;100468.28;;;18.54;65.84
69402;BME280;56589;51.992;5.924;2022-09-13T06:09:59;100468.69;;;18.59;65.83
69402;BME280;56589;51.992;5.924;2022-09-13T06:12:27;100466.50;;;18.63;65.54
69402;BME280;56589;51.992;5.924;2022-09-13T06:14:53;100473.84;;;18.69;65.49
69402;BME280;56589;51.992;5.924;2022-09-13T06:17:19;100475.88;;;18.75;65.54
69402;BME280;56589;51.992;5.924;2022-09-13T06:19:45;100475.41;;;18.80;64.95
69402;BME280;56589;51.992;5.924;2022-09-13T06:22:10;100470.63;;;18.83;65.01
69402;BME280;56589;51.992;5.924;2022-09-13T06:24:36;100470.13;;;18.88;64.95
69402;BME280;56589;51.992;5.924;2022-09-13T06:27:02;100474.97;;;18.93;64.88
69402;BME280;56589;51.992;5.924;2022-09-13T06:29:31;100476.34;;;18.97;64.99
69402;BME280;56589;51.992;5.924;2022-09-13T06:31:56;100472.34;;;19.01;64.78
69402;BME280;56589;51.992;5.924;2022-09-13T06:34:22;100476.34;;;19.05;64.82
69402;BME280;56589;51.992;5.924;2022-09-13T06:36:48;100471.22;;;19.11;64.82
69402;BME280;56589;51.992;5.924;2022-09-13T06:39:14;100465.06;;;19.19;64.82
69402;BME280;56589;51.992;5.924;2022-09-13T06:41:40;100470.44;;;19.27;64.42
69402;BME280;56589;51.992;5.924;2022-09-13T06:44:06;100472.81;;;19.38;64.62
69402;BME280;56589;51.992;5.924;2022-09-13T06:46:34;100459.38;;;19.48;64.43
69402;BME280;56589;51.992;5.924;2022-09-13T06:49:02;100451.53;;;19.55;64.41
69402;BME280;56589;51.992;5.924;2022-09-13T06:51:29;100466.22;;;19.59;63.94
69402;BME280;56589;51.992;5.924;2022-09-13T06:53:57;100465.38;;;19.66;63.72
69402;BME280;56589;51.992;5.924;2022-09-13T06:56:25;100465.06;;;19.78;63.43
69402;BME280;56589;51.992;5.924;2022-09-13T06:58:55;100464.72;;;19.89;63.40
69402;BME280;56589;51.992;5.924;2022-09-13T07:01:24;100470.06;;;19.97;63.35
69402;BME280;56589;51.992;5.924;2022-09-13T07:03:57;100472.06;;;20.03;63.17
69402;BME280;56589;51.992;5.924;2022-09-13T07:06:27;100472.22;;;20.10;62.74
69402;BME280;56589;51.992;5.924;2022-09-13T07:08:56;100480.38;;;20.16;63.23
69402;BME280;56589;51.992;5.924;2022-09-13T07:11:26;100477.56;;;20.18;62.57
69402;BME280;56589;51.992;5.924;2022-09-13T07:13:56;100478.38;;;20.18;63.10
69402;BME280;56589;51.992;5.924;2022-09-13T07:16:25;100486.03;;;20.22;63.24
69402;BME280;56589;51.992;5.924;2022-09-13T07:18:56;100478.53;;;20.25;62.84
69402;BME280;56589;51.992;5.924;2022-09-13T07:21:23;100482.41;;;20.31;63.24
69402;BME280;56589;51.992;5.924;2022-09-13T07:23:51;100468.22;;;20.38;62.99
69402;BME280;56589;51.992;5.924;2022-09-13T07:26:18;100477.19;;;20.45;62.87
69402;BME280;56589;51.992;5.924;2022-09-13T07:28:47;100483.69;;;20.51;63.01
69402;BME280;56589;51.992;5.924;2022-09-13T07:31:16;100481.16;;;20.58;62.89
69402;BME280;56589;51.992;5.924;2022-09-13T07:33:43;100489.16;;;20.66;63.09
69402;BME280;56589;51.992;5.924;2022-09-13T07:36:12;100484.81;;;20.73;62.65
69402;BME280;56589;51.992;5.924;2022-09-13T07:38:40;100478.59;;;20.81;62.54
69402;BME280;56589;51.992;5.924;2022-09-13T07:41:11;100472.59;;;20.87;62.52
69402;BME280;56589;51.992;5.924;2022-09-13T07:43:38;100479.84;;;21.01;62.54
69402;BME280;56589;51.992;5.924;2022-09-13T07:46:06;100481.81;;;21.15;62.51
69402;BME280;56589;51.992;5.924;2022-09-13T07:48:34;100485.06;;;21.34;62.27
69402;BME280;56589;51.992;5.924;2022-09-13T07:51:03;100492.34;;;21.48;62.21
69402;BME280;56589;51.992;5.924;2022-09-13T07:53:34;100502.78;;;21.58;62.29
69402;BME280;56589;51.992;5.924;2022-09-13T07:56:03;100497.66;;;21.71;61.79
69402;BME280;56589;51.992;5.924;2022-09-13T07:58:32;100488.91;;;21.85;62.30
69402;BME280;56589;51.992;5.924;2022-09-13T08:01:03;100495.81;;;22.02;61.98
69402;BME280;56589;51.992;5.924;2022-09-13T08:03:31;100497.31;;;22.20;61.52
69402;BME280;56589;51.992;5.924;2022-09-13T08:05:57;100509.25;;;22.32;61.68
69402;BME280;56589;51.992;5.924;2022-09-13T08:08:23;100503.34;;;22.37;61.11
69402;BME280;56589;51.992;5.924;2022-09-13T08:10:52;100507.53;;;22.39;61.11
69402;BME280;56589;51.992;5.924;2022-09-13T08:13:18;100509.00;;;22.42;60.96
69402;BME280;56589;51.992;5.924;2022-09-13T08:15:44;100511.97;;;22.47;61.09
69402;BME280;56589;51.992;5.924;2022-09-13T08:18:10;100513.72;;;22.54;61.24
69402;BME280;56589;51.992;5.924;2022-09-13T08:20:37;100516.47;;;22.61;60.86
69402;BME280;56589;51.992;5.924;2022-09-13T08:23:04;100507.94;;;22.66;60.83
69402;BME280;56589;51.992;5.924;2022-09-13T08:25:31;100508.97;;;22.65;60.65
69402;BME280;56589;51.992;5.924;2022-09-13T08:27:59;100514.00;;;22.59;60.87
69402;BME280;56589;51.992;5.924;2022-09-13T08:30:25;100521.16;;;22.44;60.60
69402;BME280;56589;51.992;5.924;2022-09-13T08:32:51;100514.25;;;22.35;60.97
69402;BME280;56589;51.992;5.924;2022-09-13T08:35:17;100514.44;;;22.33;60.87
69402;BME280;56589;51.992;5.924;2022-09-13T08:37:43;100505.28;;;22.28;60.99
69402;BME280;56589;51.992;5.924;2022-09-13T08:40:09;100514.47;;;22.25;60.84
69402;BME280;56589;51.992;5.924;2022-09-13T08:42:46;100508.50;;;22.23;61.00
69402;BME280;56589;51.992;5.924;2022-09-13T08:45:20;100499.84;;;22.21;60.72
69402;BME280;56589;51.992;5.924;2022-09-13T08:47:50;100511.34;;;22.22;61.20
69402;BME280;56589;51.992;5.924;2022-09-13T08:50:22;100510.81;;;22.26;61.24
69402;BME280;56589;51.992;5.924;2022-09-13T08:53:11;100508.25;;;22.33;61.31
69402;BME280;56589;51.992;5.924;2022-09-13T08:55:51;100517.56;;;22.37;61.11
69402;BME280;56589;51.992;5.924;2022-09-13T08:58:43;100505.09;;;22.44;61.34
69402;BME280;56589;51.992;5.924;2022-09-13T09:01:32;100510.16;;;22.62;61.03
69402;BME280;56589;51.992;5.924;2022-09-13T09:04:11;100510.81;;;22.79;60.71
69402;BME280;56589;51.992;5.924;2022-09-13T09:06:51;100517.47;;;22.83;59.99
69402;BME280;56589;51.992;5.924;2022-09-13T09:09:30;100512.91;;;22.69;60.31
69402;BME280;56589;51.992;5.924;2022-09-13T09:12:13;100516.31;;;22.63;60.24
69402;BME280;56589;51.992;5.924;2022-09-13T09:14:51;100525.84;;;22.65;60.60
69402;BME280;56589;51.992;5.924;2022-09-13T09:17:29;100530.00;;;22.68;60.56
69402;BME280;56589;51.992;5.924;2022-09-13T09:20:15;100532.47;;;22.69;60.89
69402;BME280;56589;51.992;5.924;2022-09-13T09:22:54;100533.97;;;22.72;60.03
69402;BME280;56589;51.992;5.924;2022-09-13T09:25:22;100528.97;;;22.69;60.22
69402;BME280;56589;51.992;5.924;2022-09-13T09:27:49;100533.69;;;22.67;60.18
69402;BME280;56589;51.992;5.924;2022-09-13T09:30:15;100530.72;;;22.62;60.48
69402;BME280;56589;51.992;5.924;2022-09-13T09:33:08;100525.25;;;22.55;60.36
69402;BME280;56589;51.992;5.924;2022-09-13T09:35:53;100532.81;;;22.51;60.73
69402;BME280;56589;51.992;5.924;2022-09-13T09:38:37;100527.63;;;22.50;60.69
69402;BME280;56589;51.992;5.924;2022-09-13T09:41:08;100527.00;;;22.48;60.31
69402;BME280;56589;51.992;5.924;2022-09-13T09:43:43;100519.34;;;22.45;60.60
69402;BME280;56589;51.992;5.924;2022-09-13T09:46:15;100524.84;;;22.43;60.46
69402;BME280;56589;51.992;5.924;2022-09-13T09:48:50;100520.72;;;22.41;60.30
69402;BME280;56589;51.992;5.924;2022-09-13T09:51:22;100516.38;;;22.40;60.50
69402;BME280;56589;51.992;5.924;2022-09-13T09:53:56;100523.00;;;22.44;60.43
69402;BME280;56589;51.992;5.924;2022-09-13T09:56:29;100519.97;;;22.47;60.34
69402;BME280;56589;51.992;5.924;2022-09-13T09:58:57;100513.81;;;22.46;59.94
69402;BME280;56589;51.992;5.924;2022-09-13T10:01:24;100520.91;;;22.39;60.01
69402;BME280;56589;51.992;5.924;2022-09-13T10:04:02;100522.03;;;22.45;60.78
69402;BME280;56589;51.992;5.924;2022-09-13T10:06:31;100523.69;;;22.60;60.58
69402;BME280;56589;51.992;5.924;2022-09-13T10:08:59;100511.34;;;22.74;59.93
69402;BME280;56589;51.992;5.924;2022-09-13T10:11:40;100510.06;;;22.85;59.46
69402;BME280;56589;51.992;5.924;2022-09-13T10:14:27;100506.19;;;22.88;59.16
69402;BME280;56589;51.992;5.924;2022-09-13T10:17:14;100509.31;;;22.91;59.82
69402;BME280;56589;51.992;5.924;2022-09-13T10:19:53;100516.06;;;23.02;58.90
69402;BME280;56589;51.992;5.924;2022-09-13T10:22:21;100508.47;;;23.05;59.38
69402;BME280;56589;51.992;5.924;2022-09-13T10:24:46;100515.59;;;23.13;58.81
69402;BME280;56589;51.992;5.924;2022-09-13T10:27:25;100509.50;;;23.19;58.96
69402;BME280;56589;51.992;5.924;2022-09-13T10:29:58;100520.38;;;23.18;58.31
69402;BME280;56589;51.992;5.924;2022-09-13T10:32:29;100512.72;;;23.15;58.13
69402;BME280;56589;51.992;5.924;2022-09-13T10:35:02;100517.34;;;23.06;57.98
69402;BME280;56589;51.992;5.924;2022-09-13T10:37:42;100512.09;;;22.98;58.12
69402;BME280;56589;51.992;5.924;2022-09-13T10:40:17;100513.94;;;22.97;58.37
69402;BME280;56589;51.992;5.924;2022-09-13T10:42:52;100511.66;;;22.94;57.98
69402;BME280;56589;51.992;5.924;2022-09-13T10:45:23;100508.59;;;22.97;58.19
69402;BME280;56589;51.992;5.924;2022-09-13T10:47:52;100503.22;;;22.97;58.06
69402;BME280;56589;51.992;5.924;2022-09-13T10:50:27;100495.91;;;23.06;58.09
69402;BME280;56589;51.992;5.924;2022-09-13T10:52:55;100494.59;;;23.17;58.34
69402;BME280;56589;51.992;5.924;2022-09-13T10:55:25;100495.22;;;23.33;57.64
69402;BME280;56589;51.992;5.924;2022-09-13T10:57:55;100499.66;;;23.41;57.08
69402;BME280;56589;51.992;5.924;2022-09-13T11:00:48;100504.59;;;23.37;56.73
69402;BME280;56589;51.992;5.924;2022-09-13T11:03:39;100498.28;;;23.30;57.08
69402;BME280;56589;51.992;5.924;2022-09-13T11:06:29;100494.75;;;23.30;57.30
69402;BME280;56589;51.992;5.924;2022-09-13T11:09:07;100494.56;;;23.46;57.24
69402;BME280;56589;51.992;5.924;2022-09-13T11:11:41;100490.72;;;23.70;56.20
69402;BME280;56589;51.992;5.924;2022-09-13T11:14:30;100486.22;;;23.77;55.68
69402;BME280;56589;51.992;5.924;2022-09-13T11:17:16;100492.75;;;23.68;55.29
69402;BME280;56589;51.992;5.924;2022-09-13T11:20:04;100488.59;;;23.65;55.25
69402;BME280;56589;51.992;5.924;2022-09-13T11:26:10;100484.88;;;23.66;55.22
69402;BME280;56589;51.992;5.924;2022-09-13T11:28:54;100488.34;;;23.82;55.41
69402;BME280;56589;51.992;5.924;2022-09-13T11:31:37;100489.28;;;23.96;54.86
69402;BME280;56589;51.992;5.924;2022-09-13T11:34:27;100483.09;;;23.95;54.71
69402;BME280;56589;51.992;5.924;2022-09-13T11:37:18;100480.16;;;23.90;55.07
69402;BME280;56589;51.992;5.924;2022-09-13T11:40:08;100482.69;;;23.98;55.04
69402;BME280;56589;51.992;5.924;2022-09-13T11:43:07;100486.47;;;24.04;54.60
69402;BME280;56589;51.992;5.924;2022-09-13T11:45:58;100475.72;;;24.04;54.54
69402;BME280;56589;51.992;5.924;2022-09-13T11:48:46;100476.22;;;24.07;53.96
69402;BME280;56589;51.992;5.924;2022-09-13T11:51:40;100475.91;;;24.17;53.47
69402;BME280;56589;51.992;5.924;2022-09-13T11:54:26;100471.16;;;24.19;52.80
69402;BME280;56589;51.992;5.924;2022-09-13T11:57:08;100462.28;;;24.18;52.92
69402;BME280;56589;51.992;5.924;2022-09-13T11:59:42;100466.38;;;24.14;53.35
69402;BME280;56589;51.992;5.924;2022-09-13T12:02:19;100458.94;;;24.16;52.89
69402;BME280;56589;51.992;5.924;2022-09-13T12:04:55;100458.16;;;24.23;53.34
69402;BME280;56589;51.992;5.924;2022-09-13T12:07:31;100463.66;;;24.36;53.64
69402;BME280;56589;51.992;5.924;2022-09-13T12:10:06;100464.75;;;24.48;53.15
69402;BME280;56589;51.992;5.924;2022-09-13T12:12:45;100467.66;;;24.53;52.36
69402;BME280;56589;51.992;5.924;2022-09-13T12:15:16;100466.16;;;24.44;52.45
69402;BME280;56589;51.992;5.924;2022-09-13T12:17:47;100466.50;;;24.34;51.79
69402;BME280;56589;51.992;5.924;2022-09-13T12:20:21;100463.78;;;24.28;52.85
69402;BME280;56589;51.992;5.924;2022-09-13T12:22:55;100462.63;;;24.37;52.37
69402;BME280;56589;51.992;5.924;2022-09-13T12:25:30;100457.63;;;24.34;52.23
69402;BME280;56589;51.992;5.924;2022-09-13T12:28:09;100463.59;;;24.29;52.12
69402;BME280;56589;51.992;5.924;2022-09-13T12:30:44;100466.88;;;24.25;52.20
69402;BME280;56589;51.992;5.924;2022-09-13T12:33:16;100453.78;;;24.15;52.28
69402;BME280;56589;51.992;5.924;2022-09-13T12:35:54;100456.91;;;24.18;52.83
69402;BME280;56589;51.992;5.924;2022-09-13T12:38:53;100463.88;;;24.41;52.91
69402;BME280;56589;51.992;5.924;2022-09-13T12:42:07;100461.59;;;24.72;51.64
69402;BME280;56589;51.992;5.924;2022-09-13T12:45:12;100456.53;;;24.84;50.68
69402;BME280;56589;51.992;5.924;2022-09-13T12:48:07;100451.97;;;24.85;50.76
69402;BME280;56589;51.992;5.924;2022-09-13T12:51:10;100462.81;;;25.05;50.39
69402;BME280;56589;51.992;5.924;2022-09-13T12:54:19;100453.75;;;25.25;48.94
69402;BME280;56589;51.992;5.924;2022-09-13T12:57:16;100455.22;;;25.21;49.17
69402;BME280;56589;51.992;5.924;2022-09-13T13:00:19;100451.06;;;25.19;49.27
69402;BME280;56589;51.992;5.924;2022-09-13T13:02:52;100451.06;;;25.25;50.07
69402;BME280;56589;51.992;5.924;2022-09-13T13:05:29;100442.44;;;25.37;49.91
69402;BME280;56589;51.992;5.924;2022-09-13T13:08:00;100441.88;;;25.48;49.32
69402;BME280;56589;51.992;5.924;2022-09-13T13:10:31;100448.06;;;25.55;48.54
69402;BME280;56589;51.992;5.924;2022-09-13T13:13:11;100447.25;;;25.61;47.25
69402;BME280;56589;51.992;5.924;2022-09-13T13:16:00;100437.13;;;25.63;47.08
69402;BME280;56589;51.992;5.924;2022-09-13T13:18:30;100437.09;;;25.57;47.46
69402;BME280;56589;51.992;5.924;2022-09-13T13:21:32;100431.31;;;25.46;47.14
69402;BME280;56589;51.992;5.924;2022-09-13T13:27:35;100427.69;;;25.13;47.19
69402;BME280;56589;51.992;5.924;2022-09-13T13:33:25;100431.06;;;24.74;47.27
69402;BME280;56589;51.992;5.924;2022-09-13T13:35:53;100435.06;;;24.56;48.16